createdAt,value
2023-03-30T00:00:01.056Z,16.30
2023-03-30T00:02:38.833Z,17.20
2023-03-30T00:05:07.687Z,17.20
2023-03-30T00:07:38.536Z,14.40
2023-03-30T00:10:07.118Z,15.10
2023-03-30T00:12:36.997Z,13.90
2023-03-30T00:15:07.223Z,12.90
2023-03-30T00:17:44.590Z,13.60
2023-03-30T00:20:14.117Z,12.40
2023-03-30T00:22:50.170Z,12.80
2023-03-30T00:25:18.575Z,12.40
2023-03-30T00:27:48.921Z,12.50
2023-03-30T00:30:18.250Z,12.90
2023-03-30T00:32:50.805Z,13.10
2023-03-30T00:35:21.319Z,13.40
2023-03-30T00:37:49.719Z,13.00
2023-03-30T00:40:21.362Z,11.30
2023-03-30T00:43:20.012Z,12.00
2023-03-30T00:45:54.209Z,10.60
2023-03-30T00:48:24.678Z,11.00
2023-03-30T00:50:52.815Z,11.30
2023-03-30T00:53:25.549Z,10.30
2023-03-30T00:55:54.730Z,10.10
2023-03-30T00:58:23.303Z,10.60
2023-03-30T01:00:58.315Z,11.50
2023-03-30T01:03:32.646Z,10.00
2023-03-30T01:06:03.149Z,9.90
2023-03-30T01:08:34.378Z,10.10
2023-03-30T01:11:03.649Z,11.60
2023-03-30T01:13:34.543Z,11.30
2023-03-30T01:16:30.422Z,11.10
2023-03-30T01:19:32.456Z,11.10
2023-03-30T01:22:12.961Z,11.50
2023-03-30T01:25:03.090Z,11.30
2023-03-30T01:27:46.195Z,10.70
2023-03-30T01:30:18.306Z,11.20
2023-03-30T01:33:31.608Z,9.80
2023-03-30T01:36:20.069Z,10.00
2023-03-30T01:39:11.583Z,10.90
2023-03-30T01:42:00.151Z,10.60
2023-03-30T01:44:40.939Z,10.80
2023-03-30T01:47:17.042Z,9.70
2023-03-30T01:49:50.107Z,10.40
2023-03-30T01:52:44.777Z,11.20
2023-03-30T01:55:42.492Z,10.10
2023-03-30T01:58:22.342Z,10.80
2023-03-30T02:00:56.054Z,10.40
2023-03-30T02:03:29.476Z,10.80
2023-03-30T02:06:04.190Z,11.70
2023-03-30T02:08:34.886Z,10.60
2023-03-30T02:11:04.907Z,10.60
2023-03-30T02:13:35.800Z,11.50
2023-03-30T02:16:10.042Z,10.50
2023-03-30T02:18:38.860Z,9.40
2023-03-30T02:21:10.104Z,9.50
2023-03-30T02:23:41.232Z,9.30
2023-03-30T02:26:10.613Z,8.90
2023-03-30T02:31:14.664Z,9.40
2023-03-30T02:34:02.782Z,10.50
2023-03-30T02:36:43.730Z,11.50
2023-03-30T02:39:27.298Z,11.70
2023-03-30T02:42:21.552Z,11.00
2023-03-30T02:45:09.154Z,11.20
2023-03-30T02:47:54.305Z,12.20
2023-03-30T02:50:29.374Z,10.80
2023-03-30T02:53:23.504Z,11.00
2023-03-30T02:56:06.812Z,10.60
2023-03-30T02:58:50.134Z,9.40
2023-03-30T03:01:23.769Z,9.10
2023-03-30T03:04:00.574Z,8.60
2023-03-30T03:06:34.033Z,8.10
2023-03-30T03:09:03.516Z,8.30
2023-03-30T03:11:32.911Z,9.20
2023-03-30T03:14:01.466Z,8.10
2023-03-30T03:16:31.862Z,8.90
2023-03-30T03:19:09.942Z,8.00
2023-03-30T03:21:45.542Z,7.50
2023-03-30T03:24:17.384Z,8.10
2023-03-30T03:27:16.452Z,12.70
2023-03-30T03:30:05.785Z,13.20
2023-03-30T03:32:40.742Z,17.30
2023-03-30T03:35:09.566Z,17.90
2023-03-30T03:37:37.905Z,21.30
2023-03-30T03:40:08.228Z,20.90
2023-03-30T03:42:36.898Z,21.70
2023-03-30T03:45:13.837Z,23.00
2023-03-30T03:47:57.209Z,20.10
2023-03-30T03:50:45.673Z,18.30
2023-03-30T03:53:15.125Z,16.60
2023-03-30T03:55:44.139Z,16.60
2023-03-30T03:58:16.850Z,15.00
2023-03-30T04:00:46.598Z,12.70
2023-03-30T04:03:19.048Z,12.00
2023-03-30T04:05:49.921Z,12.10
2023-03-30T04:08:18.345Z,12.00
2023-03-30T04:10:47.478Z,11.50
2023-03-30T04:13:19.626Z,8.10
2023-03-30T04:16:08.889Z,9.70
2023-03-30T04:19:03.955Z,10.00
2023-03-30T04:21:53.109Z,13.00
2023-03-30T04:24:39.764Z,14.70
2023-03-30T04:27:28.784Z,11.80
2023-03-30T04:30:33.204Z,13.90
2023-03-30T04:33:21.369Z,14.50
2023-03-30T04:36:07.273Z,13.40
2023-03-30T04:39:01.661Z,11.80
2023-03-30T04:42:08.364Z,12.70
2023-03-30T04:44:58.853Z,17.80
2023-03-30T04:47:50.922Z,20.70
2023-03-30T04:50:25.426Z,19.60
2023-03-30T04:53:24.847Z,20.00
2023-03-30T04:56:19.418Z,22.00
2023-03-30T04:59:26.278Z,24.50
2023-03-30T05:02:27.283Z,24.60
2023-03-30T05:05:16.667Z,17.50
2023-03-30T05:08:03.618Z,16.00
2023-03-30T05:10:50.348Z,14.00
2023-03-30T05:13:31.744Z,26.20
2023-03-30T05:16:18.639Z,20.70
2023-03-30T05:19:17.551Z,25.10
2023-03-30T05:22:07.311Z,23.10
2023-03-30T05:24:58.912Z,22.10
2023-03-30T05:27:46.273Z,18.50
2023-03-30T05:30:38.130Z,19.50
2023-03-30T05:33:14.117Z,15.40
2023-03-30T05:36:20.858Z,11.00
2023-03-30T05:41:40.677Z,22.40
2023-03-30T05:44:33.249Z,13.80
2023-03-30T05:47:22.198Z,13.20
2023-03-30T05:50:18.012Z,11.70
2023-03-30T05:53:00.563Z,11.10
2023-03-30T05:55:49.337Z,12.10
2023-03-30T05:58:38.696Z,13.80
2023-03-30T06:01:09.585Z,15.60
2023-03-30T06:03:42.432Z,18.70
2023-03-30T06:06:12.373Z,17.40
2023-03-30T06:08:42.120Z,14.00
2023-03-30T06:11:13.845Z,20.90
2023-03-30T06:13:46.803Z,21.70
2023-03-30T06:16:18.565Z,24.30
2023-03-30T06:18:47.617Z,24.20
2023-03-30T06:21:16.462Z,22.80
2023-03-30T06:24:07.884Z,22.00
2023-03-30T06:26:39.242Z,22.90
2023-03-30T06:29:08.951Z,23.40
2023-03-30T06:31:37.813Z,22.50
2023-03-30T06:34:44.594Z,25.00
2023-03-30T06:37:14.319Z,16.10
2023-03-30T06:39:42.599Z,16.40
2023-03-30T06:42:12.223Z,25.60
2023-03-30T06:45:19.660Z,14.90
2023-03-30T06:50:36.979Z,15.50
2023-03-30T06:53:14.971Z,16.60
2023-03-30T06:55:48.167Z,14.80
2023-03-30T06:58:27.434Z,16.20
2023-03-30T07:00:57.727Z,14.90
2023-03-30T07:03:32.175Z,15.10
2023-03-30T07:06:09.710Z,14.20
2023-03-30T07:08:40.531Z,15.70
2023-03-30T07:11:10.181Z,15.70
2023-03-30T07:13:45.466Z,11.90
2023-03-30T07:16:13.908Z,11.00
2023-03-30T07:18:44.760Z,11.20
2023-03-30T07:21:14.101Z,11.40
2023-03-30T07:23:45.865Z,10.90
2023-03-30T07:26:32.147Z,12.70
2023-03-30T07:29:06.895Z,9.30
2023-03-30T07:31:38.570Z,7.30
2023-03-30T07:34:07.898Z,8.10
2023-03-30T07:36:40.081Z,7.60
2023-03-30T07:39:11.351Z,7.80
2023-03-30T07:41:41.588Z,6.30
2023-03-30T07:44:09.824Z,6.10
2023-03-30T07:46:41.654Z,6.70
2023-03-30T07:51:43.633Z,6.70
2023-03-30T07:54:21.025Z,7.10
2023-03-30T07:57:14.906Z,8.30
2023-03-30T07:59:44.112Z,9.10
2023-03-30T08:02:31.922Z,7.60
2023-03-30T08:05:05.093Z,5.60
2023-03-30T08:07:47.936Z,5.10
2023-03-30T08:10:22.513Z,4.50
2023-03-30T08:12:51.752Z,4.10
2023-03-30T08:15:21.105Z,4.50
2023-03-30T08:17:49.512Z,3.60
2023-03-30T08:20:20.536Z,3.30
2023-03-30T08:22:49.104Z,4.70
2023-03-30T08:25:17.752Z,3.80
2023-03-30T08:27:47.612Z,5.80
2023-03-30T08:30:16.626Z,4.20
2023-03-30T08:32:46.607Z,4.50
2023-03-30T08:35:16.074Z,3.40
2023-03-30T08:37:45.069Z,2.60
2023-03-30T08:40:15.447Z,2.10
2023-03-30T08:42:52.015Z,1.90
2023-03-30T08:45:25.275Z,1.80
2023-03-30T08:47:53.660Z,1.90
2023-03-30T08:50:32.409Z,2.30
2023-03-30T08:53:03.948Z,2.10
2023-03-30T08:55:37.304Z,2.60
2023-03-30T08:58:40.479Z,2.60
2023-03-30T09:01:38.106Z,3.50
2023-03-30T09:04:17.852Z,2.50
2023-03-30T09:06:51.462Z,1.40
2023-03-30T09:09:21.463Z,1.10
2023-03-30T09:12:08.887Z,1.20
2023-03-30T09:14:42.163Z,1.50
2023-03-30T09:17:23.275Z,1.60
2023-03-30T09:19:57.236Z,1.40
2023-03-30T09:22:30.076Z,1.50
2023-03-30T09:25:05.749Z,2.10
2023-03-30T09:28:12.409Z,1.80
2023-03-30T09:30:47.136Z,1.70
2023-03-30T09:33:30.026Z,1.40
2023-03-30T09:36:13.229Z,2.00
2023-03-30T09:38:43.338Z,3.10
2023-03-30T09:41:34.325Z,2.10
2023-03-30T09:44:11.551Z,2.20
2023-03-30T09:46:40.595Z,1.60
2023-03-30T09:49:16.043Z,1.70
2023-03-30T09:51:53.940Z,1.30
2023-03-30T09:54:22.352Z,1.20
2023-03-30T09:56:54.361Z,1.30
2023-03-30T09:59:37.414Z,1.50
2023-03-30T10:02:28.004Z,1.50
2023-03-30T10:04:58.607Z,1.40
2023-03-30T10:07:48.100Z,1.20
2023-03-30T10:10:26.637Z,1.40
2023-03-30T10:13:15.133Z,2.20
2023-03-30T10:15:45.123Z,2.60
2023-03-30T10:18:15.863Z,1.60
2023-03-30T10:20:54.652Z,1.20
2023-03-30T10:23:24.984Z,1.60
2023-03-30T10:25:54.771Z,2.20
2023-03-30T10:28:27.364Z,1.40
2023-03-30T10:31:07.153Z,2.00
2023-03-30T10:33:40.926Z,2.90
2023-03-30T10:36:09.810Z,1.80
2023-03-30T10:38:40.455Z,2.00
2023-03-30T10:41:11.395Z,1.50
2023-03-30T10:43:41.387Z,2.30
2023-03-30T10:46:20.475Z,2.90
2023-03-30T10:49:22.169Z,2.40
2023-03-30T10:51:57.750Z,10.80
2023-03-30T10:54:31.574Z,3.90
2023-03-30T10:58:49.578Z,2.30
2023-03-30T11:01:28.323Z,2.10
2023-03-30T11:04:09.419Z,1.50
2023-03-30T11:06:49.100Z,1.50
2023-03-30T11:09:20.096Z,1.90
2023-03-30T11:11:52.865Z,1.10
2023-03-30T11:14:37.879Z,1.00
2023-03-30T11:17:11.588Z,1.10
2023-03-30T11:20:17.040Z,1.30
2023-03-30T11:22:54.930Z,1.20
2023-03-30T11:25:26.124Z,1.40
2023-03-30T11:28:41.177Z,1.20
2023-03-30T11:31:17.802Z,1.40
2023-03-30T11:34:17.993Z,2.00
2023-03-30T11:36:56.020Z,1.80
2023-03-30T11:39:32.645Z,1.70
2023-03-30T11:42:07.517Z,2.00
2023-03-30T11:44:37.527Z,1.20
2023-03-30T11:47:28.600Z,1.30
2023-03-30T11:50:02.555Z,1.40
2023-03-30T11:52:46.870Z,2.30
2023-03-30T11:55:33.013Z,1.80
2023-03-30T11:58:23.843Z,1.60
2023-03-30T12:00:54.110Z,1.60
2023-03-30T12:03:30.521Z,1.10
2023-03-30T12:06:24.693Z,1.20
2023-03-30T12:09:09.690Z,1.40
2023-03-30T12:12:29.453Z,1.30
2023-03-30T12:15:18.155Z,1.90
2023-03-30T12:18:00.023Z,1.30
2023-03-30T12:20:34.128Z,3.20
2023-03-30T12:23:29.741Z,1.10
2023-03-30T12:26:27.318Z,1.40
2023-03-30T12:29:44.325Z,1.50
2023-03-30T12:31:59.244Z,2.10
2023-03-30T12:34:28.684Z,2.70
2023-03-30T12:37:05.978Z,4.00
2023-03-30T12:40:06.261Z,6.00
2023-03-30T12:42:47.071Z,3.00
2023-03-30T12:45:15.538Z,2.50
2023-03-30T12:48:18.741Z,2.00
2023-03-30T12:51:10.722Z,1.00
2023-03-30T12:54:02.388Z,0.50
2023-03-30T12:57:07.732Z,2.30
2023-03-30T12:59:56.905Z,1.70
2023-03-30T13:02:46.749Z,1.50
2023-03-30T13:05:24.227Z,1.30
2023-03-30T13:07:54.863Z,1.30
2023-03-30T13:10:29.155Z,1.10
2023-03-30T13:12:58.310Z,0.60
2023-03-30T13:15:33.942Z,1.10
2023-03-30T13:18:04.502Z,1.60
2023-03-30T13:20:37.706Z,1.20
2023-03-30T13:23:12.656Z,0.90
2023-03-30T13:25:47.568Z,1.00
2023-03-30T13:28:54.934Z,1.20
2023-03-30T13:31:34.496Z,0.70
2023-03-30T13:34:20.436Z,0.80
2023-03-30T13:37:09.482Z,1.40
2023-03-30T13:39:42.388Z,1.30
2023-03-30T13:42:23.481Z,1.00
2023-03-30T13:45:13.070Z,1.60
2023-03-30T13:48:14.537Z,1.50
2023-03-30T13:50:56.073Z,1.00
2023-03-30T13:53:26.401Z,0.90
2023-03-30T13:55:54.579Z,1.10
2023-03-30T13:58:28.523Z,0.90
2023-03-30T14:01:07.752Z,0.90
2023-03-30T14:03:39.327Z,0.90
2023-03-30T14:06:15.453Z,1.00
2023-03-30T14:08:46.395Z,1.60
2023-03-30T14:11:22.732Z,1.20
2023-03-30T14:13:54.978Z,0.80
2023-03-30T14:16:25.112Z,0.80
2023-03-30T14:19:25.831Z,0.90
2023-03-30T14:21:58.315Z,0.50
2023-03-30T14:24:29.050Z,0.70
2023-03-30T14:27:13.930Z,1.10
2023-03-30T14:29:46.492Z,1.20
2023-03-30T14:32:16.036Z,1.20
2023-03-30T14:34:49.185Z,1.20
2023-03-30T14:37:21.175Z,2.50
2023-03-30T14:39:54.672Z,3.70
2023-03-30T14:42:27.672Z,3.40
2023-03-30T14:44:59.466Z,3.30
2023-03-30T14:47:28.053Z,5.60
2023-03-30T14:49:58.424Z,9.00
2023-03-30T14:52:53.122Z,5.70
2023-03-30T14:55:25.923Z,6.70
2023-03-30T14:57:56.055Z,6.20
2023-03-30T15:00:24.946Z,6.40
2023-03-30T15:02:55.637Z,3.30
2023-03-30T15:05:25.230Z,1.80
2023-03-30T15:07:59.377Z,8.20
2023-03-30T15:10:55.506Z,8.50
2023-03-30T15:13:34.505Z,7.30
2023-03-30T15:16:03.600Z,4.70
2023-03-30T15:18:41.829Z,4.50
2023-03-30T15:21:11.270Z,3.60
2023-03-30T15:23:41.130Z,4.10
2023-03-30T15:26:10.034Z,3.40
2023-03-30T15:28:47.553Z,3.70
2023-03-30T15:31:18.723Z,3.60
2023-03-30T15:33:54.131Z,3.70
2023-03-30T15:36:23.945Z,11.40
2023-03-30T15:38:59.223Z,11.70
2023-03-30T15:41:45.234Z,5.80
2023-03-30T15:44:21.306Z,6.50
2023-03-30T15:46:50.640Z,6.20
2023-03-30T15:49:23.420Z,12.10
2023-03-30T15:52:02.064Z,5.30
2023-03-30T15:54:34.661Z,2.50
2023-03-30T15:57:09.997Z,1.90
2023-03-30T15:59:49.444Z,2.30
2023-03-30T16:02:31.245Z,2.40
2023-03-30T16:05:03.307Z,1.80
2023-03-30T16:07:31.974Z,2.10
2023-03-30T16:10:06.098Z,1.70
2023-03-30T16:12:41.688Z,1.60
2023-03-30T16:15:16.966Z,2.30
2023-03-30T16:17:45.538Z,2.50
2023-03-30T16:20:15.728Z,3.50
2023-03-30T16:22:44.207Z,3.70
2023-03-30T16:25:12.421Z,3.50
2023-03-30T16:27:40.803Z,3.70
2023-03-30T16:30:37.787Z,4.70
2023-03-30T16:33:07.471Z,5.30
2023-03-30T16:35:35.952Z,3.70
2023-03-30T16:38:04.931Z,3.60
2023-03-30T16:40:34.934Z,3.70
2023-03-30T16:43:03.840Z,3.50
2023-03-30T16:45:32.487Z,3.10
2023-03-30T16:48:04.341Z,2.90
2023-03-30T16:50:43.764Z,3.10
2023-03-30T16:53:12.714Z,3.60
2023-03-30T16:55:41.127Z,2.70
2023-03-30T16:58:17.242Z,3.30
2023-03-30T17:00:51.274Z,2.90
2023-03-30T17:03:20.548Z,3.10
2023-03-30T17:05:53.636Z,3.70
2023-03-30T17:08:24.924Z,3.70
2023-03-30T17:10:54.742Z,3.90
2023-03-30T17:13:29.304Z,3.90
2023-03-30T17:16:17.313Z,4.20
2023-03-30T17:18:47.445Z,3.70
2023-03-30T17:21:18.471Z,3.80
2023-03-30T17:23:48.106Z,3.80
2023-03-30T17:26:17.163Z,5.60
2023-03-30T17:28:46.090Z,6.00
2023-03-30T17:31:22.198Z,8.40
2023-03-30T17:33:51.030Z,10.00
2023-03-30T17:36:22.920Z,10.00
2023-03-30T17:38:51.772Z,5.50
2023-03-30T17:41:20.389Z,5.00
2023-03-30T17:43:48.847Z,4.70
2023-03-30T17:46:18.347Z,5.30
2023-03-30T17:48:46.901Z,4.70
2023-03-30T17:51:15.560Z,5.50
2023-03-30T17:53:43.728Z,5.50
2023-03-30T17:56:13.085Z,4.30
2023-03-30T17:58:43.945Z,4.90
2023-03-30T18:01:12.977Z,4.30
2023-03-30T18:03:42.709Z,5.60
2023-03-30T18:06:11.719Z,4.70
2023-03-30T18:08:39.810Z,5.40
2023-03-30T18:11:08.101Z,4.70
2023-03-30T18:13:37.148Z,6.10
2023-03-30T18:16:06.221Z,7.40
2023-03-30T18:18:34.566Z,7.90
2023-03-30T18:21:04.526Z,6.50
2023-03-30T18:23:37.397Z,5.10
2023-03-30T18:26:11.114Z,5.20
2023-03-30T18:28:43.992Z,5.50
2023-03-30T18:31:12.943Z,5.50
2023-03-30T18:33:41.515Z,4.60
2023-03-30T18:36:13.491Z,4.10
2023-03-30T18:38:42.460Z,4.20
2023-03-30T18:41:13.057Z,3.80
2023-03-30T18:43:41.297Z,3.90
2023-03-30T18:46:11.251Z,4.60
2023-03-30T18:48:41.823Z,3.50
2023-03-30T18:51:11.847Z,4.70
2023-03-30T18:53:42.792Z,5.00
2023-03-30T18:56:11.704Z,4.30
2023-03-30T18:58:42.381Z,5.00
2023-03-30T19:01:16.129Z,5.20
2023-03-30T19:03:45.944Z,4.60
2023-03-30T19:06:17.014Z,5.30
2023-03-30T19:08:49.343Z,5.60
2023-03-30T19:11:21.915Z,5.20
2023-03-30T19:13:50.244Z,5.50
2023-03-30T19:16:22.456Z,6.50
2023-03-30T19:18:51.082Z,5.50
2023-03-30T19:21:19.586Z,6.30
2023-03-30T19:23:48.028Z,6.00
2023-03-30T19:26:16.863Z,4.80
2023-03-30T19:28:47.723Z,4.90
2023-03-30T19:31:16.603Z,5.20
2023-03-30T19:33:45.111Z,4.90
2023-03-30T19:36:14.181Z,4.60
2023-03-30T19:38:44.247Z,5.00
2023-03-30T19:44:08.695Z,4.30
2023-03-30T19:46:38.828Z,3.90
2023-03-30T19:49:07.096Z,3.90
2023-03-30T19:51:35.543Z,4.70
2023-03-30T19:54:08.857Z,4.00
2023-03-30T19:56:37.818Z,3.90
2023-03-30T19:59:08.209Z,3.10
2023-03-30T20:01:38.616Z,3.10
2023-03-30T20:04:07.501Z,2.70
2023-03-30T20:06:36.021Z,2.80
2023-03-30T20:09:07.742Z,2.80
2023-03-30T20:11:36.688Z,2.50
2023-03-30T20:14:04.913Z,2.70
2023-03-30T20:16:35.450Z,2.90
2023-03-30T20:19:12.881Z,2.70
2023-03-30T20:21:49.306Z,3.50
2023-03-30T20:24:17.410Z,3.20
2023-03-30T20:26:45.727Z,3.50
2023-03-30T20:29:14.452Z,3.50
2023-03-30T20:31:42.926Z,3.30
2023-03-30T20:34:13.086Z,3.40
2023-03-30T20:36:42.945Z,3.40
2023-03-30T20:39:14.165Z,3.50
2023-03-30T20:41:42.873Z,3.00
2023-03-30T20:44:14.026Z,3.90
2023-03-30T20:46:43.635Z,3.30
2023-03-30T20:49:12.159Z,3.60
2023-03-30T20:51:43.385Z,3.80
2023-03-30T20:54:11.902Z,3.60
2023-03-30T20:56:41.591Z,3.10
2023-03-30T20:59:09.767Z,3.60
2023-03-30T21:01:41.688Z,4.90
2023-03-30T21:04:10.633Z,3.90
2023-03-30T21:06:38.797Z,3.50
2023-03-30T21:09:10.107Z,3.70
2023-03-30T21:11:41.414Z,3.70
2023-03-30T21:14:12.579Z,3.70
2023-03-30T21:16:59.344Z,3.40
2023-03-30T21:19:27.502Z,3.20
2023-03-30T21:21:55.653Z,3.10
2023-03-30T21:24:24.907Z,3.30
2023-03-30T21:26:53.518Z,2.90
2023-03-30T21:29:23.814Z,3.00
2023-03-30T21:31:52.107Z,2.60
2023-03-30T21:34:22.251Z,3.00
2023-03-30T21:36:50.884Z,3.00
2023-03-30T21:39:19.636Z,2.80
2023-03-30T21:41:47.915Z,3.10
2023-03-30T21:44:16.156Z,3.10
2023-03-30T21:46:44.420Z,3.00
2023-03-30T21:49:12.800Z,3.20
2023-03-30T21:51:41.845Z,3.00
2023-03-30T21:54:11.827Z,3.10
2023-03-30T21:56:39.940Z,3.00
2023-03-30T21:59:08.063Z,3.60
2023-03-30T22:01:36.265Z,3.10
2023-03-30T22:04:06.310Z,3.30
2023-03-30T22:06:35.541Z,3.30
2023-03-30T22:09:03.893Z,2.90
2023-03-30T22:11:32.015Z,3.10
2023-03-30T22:14:03.986Z,3.30
2023-03-30T22:16:35.136Z,3.50
2023-03-30T22:19:13.544Z,2.90
2023-03-30T22:21:42.507Z,3.50
2023-03-30T22:24:11.282Z,3.60
2023-03-30T22:26:40.780Z,3.70
2023-03-30T22:29:09.053Z,3.90
2023-03-30T22:31:41.303Z,3.70
2023-03-30T22:34:10.171Z,3.70
2023-03-30T22:36:38.353Z,3.50
2023-03-30T22:39:07.012Z,4.30
2023-03-30T22:41:35.134Z,4.20
2023-03-30T22:44:03.482Z,4.10
2023-03-30T22:46:31.938Z,3.70
2023-03-30T22:49:00.294Z,3.80
2023-03-30T22:51:28.967Z,4.60
2023-03-30T22:53:58.753Z,3.70
2023-03-30T22:56:33.328Z,3.60
2023-03-30T22:59:02.147Z,3.40
2023-03-30T23:01:32.666Z,3.60
2023-03-30T23:04:05.021Z,12.50
2023-03-30T23:06:34.472Z,10.00
2023-03-30T23:09:04.318Z,9.00
2023-03-30T23:11:34.409Z,7.30
2023-03-30T23:26:03.248Z,26.10
2023-03-30T23:28:32.108Z,23.60
2023-03-30T23:31:08.563Z,18.00
2023-03-30T23:33:36.980Z,15.40
2023-03-30T23:36:09.540Z,13.50
2023-03-30T23:38:40.716Z,9.60
2023-03-30T23:41:09.010Z,8.20
2023-03-30T23:43:37.092Z,6.80
2023-03-30T23:46:05.466Z,7.00
2023-03-30T23:48:34.058Z,6.70
2023-03-30T23:51:02.680Z,5.00
2023-03-30T23:53:30.918Z,5.40
2023-03-30T23:55:59.895Z,5.40
2023-03-30T23:58:28.141Z,5.00
